Time;durP1;ratioP1;P1;durP2;ratioP2;P2;SDS_P1;SDS_P2;PMS_P1;PMS_P2;Temp;Humidity;BMP_temperature;BMP_pressure;BME280_temperature;BME280_humidity;BME280_pressure;Samples;Min_cycle;Max_cycle;Signal;HPM_P1;HPM_P2
2021/07/01 00:01:54;;;;;;;;;;;23.80;99.90;;;;;;5082361;28;19913;-70
2021/07/01 00:04:21;;;;;;;;;;;23.90;99.90;;;;;;5088386;28;20285;-72
2021/07/01 00:06:46;;;;;;;;;;;23.80;99.90;;;;;;5087377;28;20049;-73
2021/07/01 00:09:17;;;;;;;;;;;23.80;99.90;;;;;;5081242;28;19959;-72
2021/07/01 00:11:43;;;;;;;;;;;23.80;99.90;;;;;;5084281;28;20488;-72
2021/07/01 00:14:09;;;;;;;;;;;23.80;99.90;;;;;;5090040;28;19916;-72
2021/07/01 00:16:36;;;;;;;;;;;23.80;99.90;;;;;;5089244;28;19912;-72
2021/07/01 00:19:02;;;;;;;;;;;23.70;99.90;;;;;;5089063;28;19924;-72
2021/07/01 00:21:28;;;;;;;;;;;23.70;99.90;;;;;;5088469;28;19943;-70
2021/07/01 00:23:54;;;;;;;;;;;23.70;99.90;;;;;;5090248;28;20350;-70
2021/07/01 00:26:20;;;;;;;;;;;23.90;99.90;;;;;;5087554;28;19927;-71
2021/07/01 00:28:45;;;;;;;;;;;23.90;99.90;;;;;;5083043;28;19912;-71
2021/07/01 00:31:11;;;;;;;;;;;23.90;99.90;;;;;;5087270;28;20006;-71
2021/07/01 00:33:36;;;;;;;;;;;24.00;99.90;;;;;;5090564;28;19912;-71
2021/07/01 00:36:02;;;;;;;;;;;24.00;99.90;;;;;;5083808;28;19912;-72
2021/07/01 00:38:28;;;;;;;;;;;24.00;99.90;;;;;;5086223;28;19923;-70
2021/07/01 00:40:53;;;;;;;;;;;23.80;99.90;;;;;;5086988;28;19942;-70
2021/07/01 00:43:19;;;;;;;;;;;23.70;99.90;;;;;;5091414;28;20286;-70
2021/07/01 00:45:44;;;;;;;;;;;23.70;99.90;;;;;;5084747;28;20336;-70
2021/07/01 00:48:10;;;;;;;;;;;23.70;99.90;;;;;;5088124;28;19919;-70
2021/07/01 00:50:36;;;;;;;;;;;23.70;99.90;;;;;;5089490;28;19912;-71
2021/07/01 00:53:02;;;;;;;;;;;23.70;99.90;;;;;;5087426;28;20311;-70
2021/07/01 00:55:28;;;;;;;;;;;23.70;99.90;;;;;;5087799;28;19979;-70
2021/07/01 00:57:53;;;;;;;;;;;23.60;99.90;;;;;;5090273;28;20378;-70
2021/07/01 01:02:57;;;;;;;;;;;23.70;99.90;;;;;;5080056;28;20066;-71
2021/07/01 01:05:23;;;;;;;;;;;23.80;99.90;;;;;;5085370;28;19951;-71
2021/07/01 01:07:49;;;;;;;;;;;23.70;99.90;;;;;;5088121;28;19944;-70
2021/07/01 01:10:15;;;;;;;;;;;23.70;99.90;;;;;;5088918;28;20396;-72
2021/07/01 01:12:40;;;;;;;;;;;23.70;99.90;;;;;;5086268;28;20397;-71
2021/07/01 01:15:06;;;;;;;;;;;23.50;99.90;;;;;;5085818;28;19981;-71
2021/07/01 01:17:32;;;;;;;;;;;23.40;99.90;;;;;;5087679;28;20015;-72
2021/07/01 01:19:57;;;;;;;;;;;23.40;99.90;;;;;;5083765;28;19968;-71
2021/07/01 01:22:26;;;;;;;;;;;23.30;99.90;;;;;;5090743;28;20013;-71
2021/07/01 01:24:52;;;;;;;;;;;23.30;99.90;;;;;;5086548;28;19942;-72
2021/07/01 01:27:18;;;;;;;;;;;23.30;99.90;;;;;;5090020;28;19913;-72
2021/07/01 01:29:44;;;;;;;;;;;23.30;99.90;;;;;;5085560;28;20011;-71
2021/07/01 01:32:10;;;;;;;;;;;23.30;99.90;;;;;;5087009;28;19916;-70
2021/07/01 01:34:35;;;;;;;;;;;23.30;99.90;;;;;;5086565;28;20611;-70
2021/07/01 01:37:01;;;;;;;;;;;23.30;99.90;;;;;;5081200;28;20380;-70
2021/07/01 01:39:26;;;;;;;;;;;23.30;99.90;;;;;;5088886;28;20003;-70
2021/07/01 01:41:52;;;;;;;;;;;23.30;99.90;;;;;;5089223;28;20277;-70
2021/07/01 01:44:17;;;;;;;;;;;23.30;99.90;;;;;;5090996;28;19912;-71
2021/07/01 01:46:43;;;;;;;;;;;23.30;99.90;;;;;;5083070;28;19916;-71
2021/07/01 01:49:09;;;;;;;;;;;23.40;99.90;;;;;;5084232;28;19912;-70
2021/07/01 01:51:35;;;;;;;;;;;23.40;99.90;;;;;;5082522;28;19909;-70
2021/07/01 01:54:01;;;;;;;;;;;23.40;99.90;;;;;;5088516;28;20014;-70
2021/07/01 01:56:36;;;;;;;;;;;23.40;99.90;;;;;;5094017;28;19908;-70
2021/07/01 01:59:05;;;;;;;;;;;23.40;99.90;;;;;;5089510;28;19920;-72
2021/07/01 02:01:31;;;;;;;;;;;23.40;99.90;;;;;;5088876;28;19928;-70
2021/07/01 02:03:57;;;;;;;;;;;23.40;99.90;;;;;;5091184;28;19908;-70
2021/07/01 02:06:22;;;;;;;;;;;23.20;99.90;;;;;;5091349;28;19934;-70
2021/07/01 02:08:48;;;;;;;;;;;23.00;99.90;;;;;;5086551;28;20453;-70
2021/07/01 02:11:13;;;;;;;;;;;22.90;99.90;;;;;;5091199;28;19912;-70
2021/07/01 02:13:39;;;;;;;;;;;22.90;99.90;;;;;;5092281;28;20000;-71
2021/07/01 02:16:05;;;;;;;;;;;22.80;99.90;;;;;;5091039;28;20362;-71
2021/07/01 02:18:30;;;;;;;;;;;22.90;99.90;;;;;;5088759;28;19920;-71
2021/07/01 02:20:56;;;;;;;;;;;22.70;99.90;;;;;;5091481;28;19995;-71
2021/07/01 02:23:21;;;;;;;;;;;22.70;99.90;;;;;;5089228;28;19919;-71
2021/07/01 02:25:47;;;;;;;;;;;22.40;99.90;;;;;;5093813;28;20362;-71
2021/07/01 02:28:12;;;;;;;;;;;22.30;99.90;;;;;;5093042;28;20453;-71
2021/07/01 02:30:38;;;;;;;;;;;22.30;99.90;;;;;;5091545;28;20305;-70
2021/07/01 02:33:04;;;;;;;;;;;22.20;99.90;;;;;;5088690;28;20054;-71
2021/07/01 02:35:29;;;;;;;;;;;22.20;99.90;;;;;;5084876;28;19931;-70
2021/07/01 02:37:55;;;;;;;;;;;22.30;99.90;;;;;;5083726;28;19931;-71
2021/07/01 02:40:21;;;;;;;;;;;22.30;99.90;;;;;;5089080;28;20390;-71
2021/07/01 02:42:46;;;;;;;;;;;22.30;99.90;;;;;;5091746;28;19916;-71
2021/07/01 02:45:12;;;;;;;;;;;22.20;99.90;;;;;;5091651;28;19993;-71
2021/07/01 02:47:38;;;;;;;;;;;22.20;99.90;;;;;;5091396;28;20097;-70
2021/07/01 02:50:04;;;;;;;;;;;22.10;99.90;;;;;;5091882;28;19969;-71
2021/07/01 02:52:30;;;;;;;;;;;22.00;99.90;;;;;;5083950;28;19912;-71
2021/07/01 02:54:56;;;;;;;;;;;21.90;99.90;;;;;;5090581;28;19912;-71
2021/07/01 02:57:21;;;;;;;;;;;21.90;99.90;;;;;;5091740;28;20397;-70
2021/07/01 02:59:47;;;;;;;;;;;21.80;99.90;;;;;;5086258;28;19916;-71
2021/07/01 03:02:13;;;;;;;;;;;21.80;99.90;;;;;;5086743;28;19924;-71
2021/07/01 03:04:39;;;;;;;;;;;21.80;99.90;;;;;;5091227;28;19923;-71
2021/07/01 03:07:04;;;;;;;;;;;21.80;99.90;;;;;;5091345;28;19912;-71
2021/07/01 03:09:30;;;;;;;;;;;21.80;99.90;;;;;;5083589;28;20361;-72
2021/07/01 03:11:56;;;;;;;;;;;21.70;99.90;;;;;;5084837;28;19966;-71
2021/07/01 03:14:21;;;;;;;;;;;21.70;99.90;;;;;;5086571;28;19938;-71
2021/07/01 03:16:47;;;;;;;;;;;21.70;99.90;;;;;;5091810;28;20289;-72
2021/07/01 03:19:12;;;;;;;;;;;21.70;99.90;;;;;;5092865;28;20011;-71
2021/07/01 03:21:38;;;;;;;;;;;21.70;99.90;;;;;;5091093;28;20423;-72
2021/07/01 03:24:03;;;;;;;;;;;21.70;99.90;;;;;;5087277;28;19912;-72
2021/07/01 03:26:29;;;;;;;;;;;21.80;99.90;;;;;;5086715;28;19947;-71
2021/07/01 03:28:55;;;;;;;;;;;21.80;99.90;;;;;;5091770;28;19916;-71
2021/07/01 03:31:20;;;;;;;;;;;21.80;99.90;;;;;;5087732;28;19920;-71
2021/07/01 03:33:46;;;;;;;;;;;22.00;99.90;;;;;;5089057;28;19912;-71
2021/07/01 03:36:12;;;;;;;;;;;22.00;99.90;;;;;;5083919;28;19913;-71
2021/07/01 03:38:37;;;;;;;;;;;22.10;99.90;;;;;;5084087;28;19927;-71
2021/07/01 03:41:06;;;;;;;;;;;22.10;99.90;;;;;;5090575;28;20020;-71
2021/07/01 03:43:34;;;;;;;;;;;22.00;99.90;;;;;;5088286;28;20377;-71
2021/07/01 03:45:59;;;;;;;;;;;21.80;99.90;;;;;;5087813;28;19920;-70
2021/07/01 03:48:25;;;;;;;;;;;21.80;99.90;;;;;;5088260;28;19912;-70
2021/07/01 03:50:51;;;;;;;;;;;21.70;99.90;;;;;;5085097;28;19912;-71
2021/07/01 03:53:16;;;;;;;;;;;21.70;99.90;;;;;;5087079;28;19912;-71
2021/07/01 03:55:42;;;;;;;;;;;21.70;99.90;;;;;;5089423;28;19912;-71
2021/07/01 03:58:07;;;;;;;;;;;21.70;99.90;;;;;;5082547;28;20413;-70
2021/07/01 04:00:34;;;;;;;;;;;21.70;99.90;;;;;;5080185;28;19979;-71
2021/07/01 04:03:00;;;;;;;;;;;21.70;99.90;;;;;;5087652;28;19942;-71
2021/07/01 04:05:25;;;;;;;;;;;21.80;99.90;;;;;;5087329;28;20338;-70
2021/07/01 04:07:51;;;;;;;;;;;21.80;99.90;;;;;;5087515;28;19944;-71
2021/07/01 04:10:18;;;;;;;;;;;21.80;99.90;;;;;;5079222;28;19913;-71
2021/07/01 04:12:44;;;;;;;;;;;21.80;99.90;;;;;;5087356;28;20018;-71
2021/07/01 04:15:10;;;;;;;;;;;21.90;99.90;;;;;;5091989;28;20007;-71
2021/07/01 04:17:36;;;;;;;;;;;22.00;99.90;;;;;;5082352;28;19923;-71
2021/07/01 04:20:03;;;;;;;;;;;22.20;99.90;;;;;;5090478;28;19912;-70
2021/07/01 04:22:28;;;;;;;;;;;22.20;99.90;;;;;;5088629;28;20054;-71
2021/07/01 04:24:54;;;;;;;;;;;22.30;99.90;;;;;;5085162;28;20345;-71
2021/07/01 04:27:19;;;;;;;;;;;22.30;99.90;;;;;;5087449;28;20397;-71
2021/07/01 04:29:45;;;;;;;;;;;22.20;99.90;;;;;;5091546;28;20535;-71
2021/07/01 04:32:10;;;;;;;;;;;22.10;99.90;;;;;;5084882;28;20396;-70
2021/07/01 04:34:36;;;;;;;;;;;22.10;99.90;;;;;;5085065;28;20020;-71
2021/07/01 04:37:03;;;;;;;;;;;22.20;99.90;;;;;;5085295;28;19912;-70
2021/07/01 04:39:28;;;;;;;;;;;22.10;99.90;;;;;;5080230;28;20329;-72
2021/07/01 04:41:54;;;;;;;;;;;22.10;99.90;;;;;;5084977;28;19965;-70
2021/07/01 04:44:19;;;;;;;;;;;22.20;99.90;;;;;;5091363;28;19999;-71
2021/07/01 04:46:45;;;;;;;;;;;22.20;99.90;;;;;;5090709;28;20373;-71
2021/07/01 04:49:10;;;;;;;;;;;22.20;99.90;;;;;;5088849;28;19912;-71
2021/07/01 04:51:36;;;;;;;;;;;22.30;99.90;;;;;;5087463;28;19943;-72
2021/07/01 04:54:02;;;;;;;;;;;22.30;99.90;;;;;;5090988;28;19934;-71
2021/07/01 04:56:43;;;;;;;;;;;22.40;99.90;;;;;;5079418;28;19994;-71
2021/07/01 04:59:12;;;;;;;;;;;22.40;99.90;;;;;;5080647;28;19927;-73
2021/07/01 05:01:37;;;;;;;;;;;22.40;99.90;;;;;;5074965;28;19947;-73
2021/07/01 05:04:05;;;;;;;;;;;22.50;99.90;;;;;;5086234;28;19970;-73
2021/07/01 05:06:31;;;;;;;;;;;22.60;99.90;;;;;;5086945;28;19949;-72
2021/07/01 05:08:56;;;;;;;;;;;22.60;99.90;;;;;;5078392;28;20297;-74
2021/07/01 05:11:22;;;;;;;;;;;22.80;99.90;;;;;;5078481;28;20354;-73
2021/07/01 05:13:48;;;;;;;;;;;22.90;99.90;;;;;;5074064;28;19947;-72
2021/07/01 05:16:13;;;;;;;;;;;23.00;99.90;;;;;;5081918;28;19923;-71
2021/07/01 05:18:39;;;;;;;;;;;23.10;99.90;;;;;;5090745;28;19920;-72
2021/07/01 05:21:04;;;;;;;;;;;23.20;99.90;;;;;;5080463;28;20251;-72
2021/07/01 05:23:30;;;;;;;;;;;23.40;99.90;;;;;;5085964;28;19912;-73
2021/07/01 05:25:55;;;;;;;;;;;23.50;99.90;;;;;;5080893;28;19973;-73
2021/07/01 05:28:21;;;;;;;;;;;23.60;99.90;;;;;;5089095;28;19908;-73
2021/07/01 05:30:47;;;;;;;;;;;23.60;99.90;;;;;;5087779;28;19983;-72
2021/07/01 05:33:12;;;;;;;;;;;23.70;99.90;;;;;;5090786;28;20472;-72
2021/07/01 05:35:38;;;;;;;;;;;23.80;99.90;;;;;;5087923;28;19912;-72
2021/07/01 05:38:04;;;;;;;;;;;23.80;99.90;;;;;;5086325;28;19916;-72
2021/07/01 05:40:29;;;;;;;;;;;23.90;99.90;;;;;;5084631;28;19947;-72
2021/07/01 05:42:55;;;;;;;;;;;24.00;99.90;;;;;;5089536;28;19912;-72
2021/07/01 05:45:21;;;;;;;;;;;24.00;99.90;;;;;;5090696;28;19934;-72
2021/07/01 05:47:46;;;;;;;;;;;24.00;99.90;;;;;;5088788;28;19991;-73
2021/07/01 05:50:12;;;;;;;;;;;24.10;99.90;;;;;;5091184;28;20003;-72
2021/07/01 05:52:39;;;;;;;;;;;24.10;99.90;;;;;;5090531;28;19961;-72
2021/07/01 05:55:05;;;;;;;;;;;24.20;99.90;;;;;;5090721;28;19908;-73
2021/07/01 05:57:31;;;;;;;;;;;24.30;99.90;;;;;;5089100;28;19934;-73
2021/07/01 05:59:56;;;;;;;;;;;24.40;99.90;;;;;;5087382;28;20409;-72
2021/07/01 06:02:22;;;;;;;;;;;24.40;99.90;;;;;;5091214;28;19912;-73
2021/07/01 06:04:48;;;;;;;;;;;24.40;99.90;;;;;;5094333;28;20313;-72
2021/07/01 06:07:17;;;;;;;;;;;24.40;99.90;;;;;;5086306;28;20366;-72
2021/07/01 06:09:45;;;;;;;;;;;24.50;99.90;;;;;;5090089;28;19916;-73
2021/07/01 06:12:11;;;;;;;;;;;24.60;99.90;;;;;;5088135;28;19912;-73
2021/07/01 06:14:36;;;;;;;;;;;24.70;99.90;;;;;;5090693;28;19919;-72
2021/07/01 06:17:04;;;;;;;;;;;24.80;99.90;;;;;;5089076;28;19912;-73
2021/07/01 06:19:30;;;;;;;;;;;24.90;99.90;;;;;;5087014;28;20010;-72
2021/07/01 06:21:57;;;;;;;;;;;25.00;99.90;;;;;;5087372;28;20374;-73
2021/07/01 06:24:22;;;;;;;;;;;25.00;99.90;;;;;;5089143;28;19914;-74
2021/07/01 06:26:49;;;;;;;;;;;25.00;99.90;;;;;;5089454;28;19999;-73
2021/07/01 06:29:16;;;;;;;;;;;25.10;99.90;;;;;;5090112;28;19915;-73
2021/07/01 06:31:41;;;;;;;;;;;25.10;99.90;;;;;;5087049;28;19912;-72
2021/07/01 06:34:07;;;;;;;;;;;25.10;99.90;;;;;;5088874;28;20331;-72
2021/07/01 06:36:37;;;;;;;;;;;25.20;99.90;;;;;;5085073;28;19912;-73
2021/07/01 06:39:05;;;;;;;;;;;25.30;99.90;;;;;;5085171;28;19920;-73
2021/07/01 06:41:32;;;;;;;;;;;25.50;99.90;;;;;;5092466;28;20434;-64
2021/07/01 06:43:58;;;;;;;;;;;25.60;99.90;;;;;;5092608;28;20401;-67
2021/07/01 06:46:30;;;;;;;;;;;25.70;99.90;;;;;;5089627;28;19972;-67
2021/07/01 06:48:56;;;;;;;;;;;25.90;99.90;;;;;;5092542;28;19912;-67
2021/07/01 06:51:22;;;;;;;;;;;26.00;99.90;;;;;;5093243;28;20373;-67
2021/07/01 06:53:48;;;;;;;;;;;25.90;99.90;;;;;;5092811;28;19913;-66
2021/07/01 06:56:14;;;;;;;;;;;25.90;99.90;;;;;;5088191;28;19921;-68
2021/07/01 06:58:40;;;;;;;;;;;26.00;99.90;;;;;;5081554;28;19916;-67
2021/07/01 07:01:06;;;;;;;;;;;26.20;99.90;;;;;;5082874;28;20580;-67
2021/07/01 07:03:32;;;;;;;;;;;26.30;99.90;;;;;;5081982;28;19995;-66
2021/07/01 07:06:00;;;;;;;;;;;26.30;99.90;;;;;;5076433;28;20006;-69
2021/07/01 07:08:26;;;;;;;;;;;26.20;99.90;;;;;;5080764;28;19920;-66
2021/07/01 07:10:52;;;;;;;;;;;26.30;99.90;;;;;;5079895;28;19965;-68
2021/07/01 07:13:19;;;;;;;;;;;26.50;99.90;;;;;;5082616;28;20043;-68
2021/07/01 07:15:45;;;;;;;;;;;26.50;99.90;;;;;;5086885;28;19912;-68
2021/07/01 07:18:20;;;;;;;;;;;26.40;99.90;;;;;;5086684;28;19923;-67
2021/07/01 07:20:46;;;;;;;;;;;26.40;99.90;;;;;;5076127;28;19959;-68
2021/07/01 07:23:16;;;;;;;;;;;26.30;99.90;;;;;;5084997;28;20000;-68
2021/07/01 07:25:43;;;;;;;;;;;26.50;99.90;;;;;;5092605;28;19908;-70
2021/07/01 07:28:10;;;;;;;;;;;26.60;99.90;;;;;;5090073;28;20393;-70
2021/07/01 07:30:35;;;;;;;;;;;26.60;99.90;;;;;;5089889;28;19938;-70
2021/07/01 07:33:02;;;;;;;;;;;26.80;99.90;;;;;;5089032;28;19912;-68
2021/07/01 07:35:28;;;;;;;;;;;26.90;99.90;;;;;;5082323;28;19981;-70
2021/07/01 07:37:54;;;;;;;;;;;27.00;99.90;;;;;;5087515;28;19923;-70
2021/07/01 07:40:19;;;;;;;;;;;27.00;99.90;;;;;;5089424;28;19942;-70
2021/07/01 07:42:45;;;;;;;;;;;26.90;99.90;;;;;;5091104;28;19927;-71
2021/07/01 07:45:11;;;;;;;;;;;26.80;99.90;;;;;;5091592;28;19998;-71
2021/07/01 07:47:37;;;;;;;;;;;26.90;99.90;;;;;;5088358;28;20374;-71
2021/07/01 07:50:03;;;;;;;;;;;26.90;99.90;;;;;;5090701;28;20022;-70
2021/07/01 07:52:30;;;;;;;;;;;27.00;99.90;;;;;;5086187;28;19920;-70
2021/07/01 07:54:58;;;;;;;;;;;27.10;99.90;;;;;;5089901;28;19912;-69
2021/07/01 07:57:28;;;;;;;;;;;27.10;99.90;;;;;;5092256;28;19993;-71
2021/07/01 07:59:56;;;;;;;;;;;27.10;99.90;;;;;;5089227;28;20019;-70
2021/07/01 08:02:29;;;;;;;;;;;27.10;99.90;;;;;;5088713;28;19912;-69
2021/07/01 08:04:56;;;;;;;;;;;27.10;99.90;;;;;;5090965;28;19908;-68
2021/07/01 08:07:22;;;;;;;;;;;27.20;99.90;;;;;;5086965;28;19912;-70
2021/07/01 08:09:48;;;;;;;;;;;27.30;99.90;;;;;;5089457;28;19912;-70
2021/07/01 08:12:17;;;;;;;;;;;27.50;99.90;;;;;;5091567;28;19912;-69
2021/07/01 08:14:43;;;;;;;;;;;27.60;99.90;;;;;;5091090;28;19908;-70
2021/07/01 08:17:09;;;;;;;;;;;27.70;99.90;;;;;;5088640;28;19965;-69
2021/07/01 08:19:35;;;;;;;;;;;27.60;99.90;;;;;;5090169;28;20419;-70
2021/07/01 08:22:01;;;;;;;;;;;27.70;99.90;;;;;;5090000;28;19987;-70
2021/07/01 08:24:28;;;;;;;;;;;27.70;99.90;;;;;;5087754;28;19914;-69
2021/07/01 08:26:54;;;;;;;;;;;27.80;99.90;;;;;;5089143;28;19969;-69
2021/07/01 08:29:20;;;;;;;;;;;28.00;99.90;;;;;;5087914;28;20324;-70
2021/07/01 08:31:46;;;;;;;;;;;28.10;99.90;;;;;;5087917;28;19918;-69
2021/07/01 08:34:13;;;;;;;;;;;28.10;99.90;;;;;;5091474;28;19951;-69
2021/07/01 08:36:40;;;;;;;;;;;28.10;99.90;;;;;;5090175;28;20370;-70
2021/07/01 08:39:06;;;;;;;;;;;28.10;99.90;;;;;;5085913;28;19969;-69
2021/07/01 08:41:32;;;;;;;;;;;28.10;99.90;;;;;;5090106;28;19912;-70
2021/07/01 08:43:59;;;;;;;;;;;28.10;99.90;;;;;;5089356;28;19957;-70
2021/07/01 08:46:26;;;;;;;;;;;28.20;99.90;;;;;;5086438;28;20419;-71
2021/07/01 08:48:54;;;;;;;;;;;28.40;99.90;;;;;;5088035;28;19914;-70
2021/07/01 08:51:26;;;;;;;;;;;28.50;99.90;;;;;;5088032;28;19924;-71
2021/07/01 08:54:00;;;;;;;;;;;28.60;99.90;;;;;;5085926;28;19931;-68
2021/07/01 08:56:28;;;;;;;;;;;28.70;99.90;;;;;;5084258;28;19919;-69
2021/07/01 08:58:55;;;;;;;;;;;28.80;99.90;;;;;;5085400;28;19976;-69
2021/07/01 09:01:24;;;;;;;;;;;28.50;99.90;;;;;;5085998;28;19912;-68
2021/07/01 09:03:51;;;;;;;;;;;28.60;99.90;;;;;;5090835;28;19908;-69
2021/07/01 09:06:23;;;;;;;;;;;28.90;99.90;;;;;;5087518;28;19922;-69
2021/07/01 09:08:49;;;;;;;;;;;29.00;99.90;;;;;;5083185;28;19991;-68
2021/07/01 09:11:17;;;;;;;;;;;28.90;99.90;;;;;;5084663;28;19967;-69
2021/07/01 09:13:45;;;;;;;;;;;28.70;99.90;;;;;;5090753;28;19908;-69
2021/07/01 09:16:12;;;;;;;;;;;28.50;99.90;;;;;;5089997;28;19908;-69
2021/07/01 09:18:39;;;;;;;;;;;28.30;99.90;;;;;;5089811;28;19962;-69
2021/07/01 09:21:09;;;;;;;;;;;28.10;99.90;;;;;;5083420;28;20224;-69
2021/07/01 09:23:36;;;;;;;;;;;27.90;99.90;;;;;;5081236;28;19995;-71
2021/07/01 09:26:03;;;;;;;;;;;27.50;99.90;;;;;;5083674;28;20004;-68
2021/07/01 09:28:29;;;;;;;;;;;27.10;99.90;;;;;;5088338;28;19920;-69
2021/07/01 09:30:55;;;;;;;;;;;26.80;99.90;;;;;;5090137;28;19915;-69
2021/07/01 09:33:21;;;;;;;;;;;26.60;99.90;;;;;;5084009;28;19912;-70
2021/07/01 09:35:47;;;;;;;;;;;26.40;99.90;;;;;;5090493;28;20263;-68
2021/07/01 09:38:14;;;;;;;;;;;26.30;99.90;;;;;;5082774;28;20353;-69
2021/07/01 09:40:39;;;;;;;;;;;26.40;99.90;;;;;;5084584;28;20086;-68
2021/07/01 09:43:06;;;;;;;;;;;26.50;99.90;;;;;;5090366;28;19975;-68
2021/07/01 09:45:32;;;;;;;;;;;26.90;99.90;;;;;;5089330;28;19913;-68
2021/07/01 09:48:06;;;;;;;;;;;27.20;99.90;;;;;;5088893;28;19939;-69
2021/07/01 09:50:33;;;;;;;;;;;27.30;99.90;;;;;;5085056;28;19919;-69
2021/07/01 09:53:01;;;;;;;;;;;27.30;99.90;;;;;;5086372;28;19916;-70
2021/07/01 09:55:27;;;;;;;;;;;27.20;99.90;;;;;;5091188;28;19908;-70
2021/07/01 09:57:55;;;;;;;;;;;27.10;99.90;;;;;;5090007;28;19912;-71
2021/07/01 10:00:25;;;;;;;;;;;27.00;99.90;;;;;;5087784;28;19916;-73
2021/07/01 10:03:01;;;;;;;;;;;27.10;99.90;;;;;;5088631;28;20419;-73
2021/07/01 10:05:28;;;;;;;;;;;27.10;99.90;;;;;;5084563;28;20394;-73
2021/07/01 10:07:54;;;;;;;;;;;27.10;99.90;;;;;;5088440;28;20004;-73
2021/07/01 10:10:20;;;;;;;;;;;27.00;99.90;;;;;;5087609;28;20338;-73
2021/07/01 10:12:51;;;;;;;;;;;27.00;99.90;;;;;;5092613;28;20370;-73
2021/07/01 10:15:23;;;;;;;;;;;27.20;99.90;;;;;;5093103;28;20372;-73
2021/07/01 10:18:02;;;;;;;;;;;27.40;99.90;;;;;;5090881;28;19920;-73
2021/07/01 10:20:32;;;;;;;;;;;27.50;99.90;;;;;;5088385;28;19985;-74
2021/07/01 10:22:58;;;;;;;;;;;27.50;99.90;;;;;;5079435;28;19927;-74
2021/07/01 10:25:28;;;;;;;;;;;27.50;99.90;;;;;;5085609;28;19916;-72
2021/07/01 10:27:53;;;;;;;;;;;27.50;99.90;;;;;;5081269;28;19916;-73
2021/07/01 10:30:22;;;;;;;;;;;27.60;99.90;;;;;;5082964;28;19927;-72
2021/07/01 10:32:49;;;;;;;;;;;27.80;99.90;;;;;;5093707;28;19916;-71
2021/07/01 10:35:28;;;;;;;;;;;27.60;99.90;;;;;;5091723;28;20471;-72
2021/07/01 10:38:13;;;;;;;;;;;27.00;99.90;;;;;;5088493;28;20385;-72
2021/07/01 10:40:39;;;;;;;;;;;26.60;99.90;;;;;;5090107;28;19960;-72
2021/07/01 10:43:06;;;;;;;;;;;26.20;99.90;;;;;;5092688;28;19940;-72
2021/07/01 10:45:32;;;;;;;;;;;26.20;99.90;;;;;;5093826;28;19908;-72
2021/07/01 10:48:30;;;;;;;;;;;26.50;99.90;;;;;;5085777;28;20023;-73
2021/07/01 10:51:05;;;;;;;;;;;26.70;99.90;;;;;;5069548;28;19912;-72
2021/07/01 10:53:33;;;;;;;;;;;26.70;99.90;;;;;;5092127;28;20504;-73
2021/07/01 10:56:01;;;;;;;;;;;26.80;99.90;;;;;;5083622;28;20358;-71
2021/07/01 10:58:27;;;;;;;;;;;27.10;99.90;;;;;;5091633;28;19912;-72
2021/07/01 11:00:53;;;;;;;;;;;27.20;99.90;;;;;;5092846;28;20317;-72
2021/07/01 11:03:20;;;;;;;;;;;27.50;99.90;;;;;;5088677;28;19922;-72
2021/07/01 11:05:46;;;;;;;;;;;27.90;99.90;;;;;;5090848;28;19912;-74
2021/07/01 11:08:27;;;;;;;;;;;27.80;99.90;;;;;;5090347;28;19908;-72
2021/07/01 11:10:53;;;;;;;;;;;28.00;99.90;;;;;;5091604;28;19913;-72
2021/07/01 11:13:18;;;;;;;;;;;28.20;99.90;;;;;;5093257;28;19908;-73
2021/07/01 11:16:00;;;;;;;;;;;28.30;99.90;;;;;;5092854;28;19919;-75
2021/07/01 11:18:36;;;;;;;;;;;28.40;99.90;;;;;;5089509;28;19942;-74
2021/07/01 11:21:07;;;;;;;;;;;28.40;99.90;;;;;;5080734;28;19920;-73
2021/07/01 11:23:33;;;;;;;;;;;28.50;99.90;;;;;;5091214;28;19912;-72
2021/07/01 11:25:59;;;;;;;;;;;28.10;99.90;;;;;;5092305;28;19957;-74
2021/07/01 11:28:30;;;;;;;;;;;28.20;99.90;;;;;;5086775;28;19919;-73
2021/07/01 11:31:00;;;;;;;;;;;28.60;99.90;;;;;;5084547;28;19912;-73
2021/07/01 11:33:26;;;;;;;;;;;29.20;99.90;;;;;;5089362;28;20401;-73
2021/07/01 11:36:08;;;;;;;;;;;29.40;99.90;;;;;;5093315;28;20270;-72
2021/07/01 11:38:34;;;;;;;;;;;29.50;99.90;;;;;;5089426;28;20294;-73
2021/07/01 11:41:01;;;;;;;;;;;29.90;99.90;;;;;;5090872;28;19912;-73
2021/07/01 11:43:27;;;;;;;;;;;29.90;99.90;;;;;;5092531;28;20429;-72
2021/07/01 11:45:53;;;;;;;;;;;29.60;99.90;;;;;;5092154;28;19927;-73
2021/07/01 11:48:20;;;;;;;;;;;29.50;99.90;;;;;;5091271;28;20313;-74
2021/07/01 11:50:48;;;;;;;;;;;29.30;99.90;;;;;;5092372;28;19908;-73
2021/07/01 11:53:14;;;;;;;;;;;29.50;99.90;;;;;;5088173;28;19916;-74
2021/07/01 11:55:40;;;;;;;;;;;29.40;99.90;;;;;;5086486;28;19913;-73
2021/07/01 11:58:06;;;;;;;;;;;28.90;99.90;;;;;;5089861;28;20408;-73
2021/07/01 12:00:31;;;;;;;;;;;27.90;99.90;;;;;;5090015;28;19916;-73
2021/07/01 12:02:58;;;;;;;;;;;26.90;99.90;;;;;;5089072;28;19916;-72
2021/07/01 12:05:24;;;;;;;;;;;26.20;99.90;;;;;;5085525;28;19977;-73
2021/07/01 12:07:49;;;;;;;;;;;25.50;99.90;;;;;;5087850;28;20627;-78
2021/07/01 12:10:19;;;;;;;;;;;25.10;99.90;;;;;;5076894;28;20309;-73
2021/07/01 12:12:44;;;;;;;;;;;25.00;99.90;;;;;;5082420;28;19968;-73
2021/07/01 12:15:11;;;;;;;;;;;24.80;99.90;;;;;;5090798;28;20326;-72
2021/07/01 12:18:03;;;;;;;;;;;24.70;99.90;;;;;;5091842;28;19916;-73
2021/07/01 12:20:32;;;;;;;;;;;24.60;99.90;;;;;;5086571;28;19924;-73
2021/07/01 12:23:02;;;;;;;;;;;24.40;99.90;;;;;;5088799;28;19916;-74
2021/07/01 12:25:27;;;;;;;;;;;24.30;99.90;;;;;;5086635;28;19915;-73
2021/07/01 12:28:08;;;;;;;;;;;24.10;99.90;;;;;;5092192;28;19981;-74
2021/07/01 12:30:55;;;;;;;;;;;23.90;99.90;;;;;;5087876;28;20167;-73
2021/07/01 12:33:30;;;;;;;;;;;23.80;99.90;;;;;;5082521;28;19912;-73
2021/07/01 12:36:03;;;;;;;;;;;23.60;99.90;;;;;;5087280;28;19982;-74
2021/07/01 12:38:28;;;;;;;;;;;23.60;99.90;;;;;;5087623;28;19958;-73
2021/07/01 12:40:55;;;;;;;;;;;23.70;99.90;;;;;;5088797;28;19912;-73
2021/07/01 12:43:39;;;;;;;;;;;23.70;99.90;;;;;;5090900;28;19916;-72
2021/07/01 12:46:07;;;;;;;;;;;23.50;99.90;;;;;;5081722;28;19920;-73
2021/07/01 12:48:35;;;;;;;;;;;23.30;99.90;;;;;;5087027;28;19931;-72
2021/07/01 12:51:21;;;;;;;;;;;23.20;99.90;;;;;;5090862;28;19912;-72
2021/07/01 12:53:46;;;;;;;;;;;23.00;99.90;;;;;;5084168;28;19995;-76
2021/07/01 12:56:38;;;;;;;;;;;22.50;99.90;;;;;;5088974;28;20026;-75
2021/07/01 12:59:03;;;;;;;;;;;21.70;99.90;;;;;;5085023;28;20474;-74
2021/07/01 13:01:29;;;;;;;;;;;20.90;99.90;;;;;;5091288;28;19912;-74
2021/07/01 13:03:55;;;;;;;;;;;20.50;99.90;;;;;;5090441;28;19920;-74
2021/07/01 13:06:21;;;;;;;;;;;20.50;99.90;;;;;;5080349;28;19920;-73
2021/07/01 13:08:46;;;;;;;;;;;20.30;99.90;;;;;;5089626;28;19912;-75
2021/07/01 13:11:12;;;;;;;;;;;20.20;99.90;;;;;;5087057;28;20007;-74
2021/07/01 13:13:37;;;;;;;;;;;20.40;99.90;;;;;;5076588;28;19916;-74
2021/07/01 13:16:09;;;;;;;;;;;20.50;99.90;;;;;;5086858;28;19973;-73
2021/07/01 13:18:35;;;;;;;;;;;20.50;99.90;;;;;;5088797;28;20004;-75
2021/07/01 13:21:10;;;;;;;;;;;20.70;99.90;;;;;;5078085;28;19922;-75
2021/07/01 13:23:36;;;;;;;;;;;20.80;99.90;;;;;;5083960;28;19912;-76
2021/07/01 13:26:12;;;;;;;;;;;21.00;99.90;;;;;;5075442;28;19916;-75
2021/07/01 13:28:38;;;;;;;;;;;21.10;99.90;;;;;;5070790;28;19912;-75
2021/07/01 13:31:04;;;;;;;;;;;21.30;99.90;;;;;;5078836;28;19916;-74
2021/07/01 13:33:30;;;;;;;;;;;21.40;99.90;;;;;;5089815;28;20412;-74
2021/07/01 13:35:55;;;;;;;;;;;21.50;99.90;;;;;;5085851;28;20006;-74
2021/07/01 13:38:22;;;;;;;;;;;21.90;99.90;;;;;;5090265;28;19912;-74
2021/07/01 13:40:51;;;;;;;;;;;22.20;99.90;;;;;;5089309;28;20346;-74
2021/07/01 13:43:18;;;;;;;;;;;22.40;99.90;;;;;;5085875;28;19913;-75
2021/07/01 13:45:45;;;;;;;;;;;22.60;99.90;;;;;;5090086;28;19916;-73
2021/07/01 13:48:17;;;;;;;;;;;22.90;99.90;;;;;;5074623;28;20006;-75
2021/07/01 13:50:44;;;;;;;;;;;23.20;99.90;;;;;;5074534;28;19980;-74
2021/07/01 13:53:11;;;;;;;;;;;23.40;99.90;;;;;;5090911;28;19935;-74
2021/07/01 13:55:39;;;;;;;;;;;23.60;99.90;;;;;;5089499;28;20324;-74
2021/07/01 13:58:05;;;;;;;;;;;24.00;99.90;;;;;;5078034;28;19916;-73
2021/07/01 14:00:33;;;;;;;;;;;24.20;99.90;;;;;;5084973;28;20491;-74
2021/07/01 14:03:00;;;;;;;;;;;24.30;99.90;;;;;;5092754;28;19931;-73
2021/07/01 14:05:27;;;;;;;;;;;24.20;99.90;;;;;;5091934;28;20286;-74
2021/07/01 14:07:53;;;;;;;;;;;24.10;99.90;;;;;;5084954;28;20519;-72
2021/07/01 14:10:18;;;;;;;;;;;24.40;99.90;;;;;;5078384;28;19931;-74
2021/07/01 14:12:44;;;;;;;;;;;24.80;99.90;;;;;;5081282;28;19919;-74
2021/07/01 14:15:11;;;;;;;;;;;24.80;99.90;;;;;;5093816;28;19966;-72
2021/07/01 14:17:37;;;;;;;;;;;24.40;99.90;;;;;;5112937;28;20032;-72
2021/07/01 14:20:04;;;;;;;;;;;24.00;99.90;;;;;;5074218;28;19912;-71